Sheng Jia 1 — XUGG7 — position and weather

sailwx.info

Track history (hours):
 
Tides and Currents Weather Stations Pressure Air Temp Water Temp Dewpoint Dewpoint Depression Visibility Wind Speed Wind Dir Waves Ship Positions

Sheng Jia 1

Last reported at 2014-Oct-22 23:16 UTC. Time now 2014-Oct-24 12:10 UTC.
Position N 30°41' E 122°51'.

Length 73 m; draft 3.5 m.

Type: Cargo ship. MMSI: 515744000.

Date/timePositionNaut miles runAvg speedWind from/ knotsBaromVisibWave heightAir tempDewpointWater temp
2014-Oct-22 23:16N 30°41' E 122°51'2 2.7
2014-Oct-22 22:33N 30°41' E 122°48'0 0.0
2014-Oct-22 21:32N 30°41' E 122°48'0 0.1
2014-Oct-22 20:33N 30°41' E 122°49'0 0.0
2014-Oct-22 19:33N 30°41' E 122°49'0 0.1
2014-Oct-22 18:33N 30°41' E 122°49'0 0.0
2014-Oct-22 17:33N 30°41' E 122°49'0 0.1
2014-Oct-22 16:32N 30°41' E 122°49'0 0.1
2014-Oct-22 15:32N 30°41' E 122°49'0 0.1
2014-Oct-22 14:33N 30°41' E 122°49'0 0.0
2014-Oct-22 13:29N 30°41' E 122°49'0 0.0
2014-Oct-22 12:33N 30°41' E 122°49'2 0.5
2014-Oct-22 08:33N 30°41' E 122°51'2 2.1
2014-Oct-22 07:33N 30°41' E 122°48'0 0.1
2014-Oct-22 06:33N 30°41' E 122°48'0 0.0
2014-Oct-22 05:33N 30°41' E 122°48'0 0.0
2014-Oct-22 04:33N 30°41' E 122°48'0 0.0
2014-Oct-22 03:33N 30°41' E 122°48'0 0.0
2014-Oct-22 02:32N 30°41' E 122°48'0 0.1
2014-Oct-22 01:33N 30°41' E 122°48'0 0.1
2014-Oct-22 00:33N 30°41' E 122°48'0 0.0
2014-Oct-21 23:32N 30°41' E 122°48'0 0.0
2014-Oct-21 22:32N 30°41' E 122°48'0 0.0
2014-Oct-21 21:33N 30°41' E 122°48'0 0.0
2014-Oct-21 20:33N 30°41' E 122°48'0 0.0
2014-Oct-21 19:34N 30°41' E 122°48'0 0.0
2014-Oct-21 18:31N 30°41' E 122°48'0 0.1
2014-Oct-21 17:32N 30°41' E 122°48'0 0.0
2014-Oct-21 16:33N 30°41' E 122°48'0 0.0
2014-Oct-21 15:33N 30°41' E 122°48'5 5.3
2014-Oct-21 14:32N 30°46' E 122°51'9 8.7
2014-Oct-21 13:31N 30°54' E 122°48'13 2.5
2014-Oct-21 08:26N 30°58' E 122°33'12 9.6
2014-Oct-21 07:12N 31°01' E 122°20'35 9.4
2014-Oct-21 03:29N 31°17' E 121°44'7 7.0
2014-Oct-21 02:33N 31°22' E 121°38'6 6.4
2014-Oct-21 01:33N 31°23' E 121°31'5 4.8
2014-Oct-21 00:33N 31°19' E 121°34'6 6.0
2014-Oct-20 23:34N 31°15' E 121°29'7 6.0
2014-Oct-20 22:24N 31°08' E 121°28'2 0.1
2014-Oct-20 05:32N 31°10' E 121°28'6 5.9
2014-Oct-20 04:33N 31°15' E 121°31'6 5.7
2014-Oct-20 03:33N 31°21' E 121°32'3 3.2
2014-Oct-20 02:33N 31°23' E 121°34'1010.0
2014-Oct-20 01:33N 31°18' E 121°44'38 6.0
2014-Oct-19 19:15N 30°57' E 122°21'6 8.2
2014-Oct-19 18:33N 30°52' E 122°20'8 8.3
2014-Oct-19 17:32N 30°44' E 122°17'9 8.6
2014-Oct-19 16:32N 30°35' E 122°14'1510.4
2014-Oct-19 15:09N 30°27' E 122°01'15 9.0
2014-Oct-19 13:30N 30°16' E 121°48'1210.6
2014-Oct-19 12:24N 30°05' E 121°48'7 8.0
2014-Oct-19 11:33N 29°59' E 121°45'1 0.0
2014-Oct-18 12:24N 29°59' E 121°46'3 1.2
2014-Oct-18 10:20N 30°01' E 121°47'0 0.0
2014-Oct-18 09:32N 30°01' E 121°47'0 0.0
2014-Oct-18 08:26N 30°01' E 121°47'0 0.1
2014-Oct-18 07:08N 30°01' E 121°47'0 0.1
2014-Oct-18 06:14N 30°01' E 121°47'0 0.0
2014-Oct-18 05:26N 30°01' E 121°47'0 0.0
2014-Oct-18 04:32N 30°01' E 121°47'0 0.1
2014-Oct-18 03:32N 30°01' E 121°47'0 0.0
2014-Oct-18 02:20N 30°01' E 121°47'0 0.1
2014-Oct-18 01:33N 30°01' E 121°47'0 0.0
2014-Oct-18 00:19N 30°01' E 121°47'0 0.0
2014-Oct-17 19:13N 30°01' E 121°47'0 0.0
2014-Oct-17 18:19N 30°01' E 121°47'0 0.1
2014-Oct-17 17:13N 30°01' E 121°47'0 0.0
2014-Oct-17 16:31N 30°01' E 121°47'0 0.0
2014-Oct-17 14:25N 30°01' E 121°47'0 0.1
2014-Oct-17 13:21N 30°01' E 121°47'0 0.1
2014-Oct-17 12:17N 30°01' E 121°47'0 0.0
2014-Oct-17 08:33N 30°01' E 121°47'0 0.0
2014-Oct-17 05:08N 30°01' E 121°47'0 0.0
2014-Oct-17 03:19N 30°01' E 121°47'0 0.0
2014-Oct-17 02:10N 30°01' E 121°47'0 0.0
2014-Oct-17 00:21N 30°01' E 121°47'0 0.1
2014-Oct-16 23:25N 30°01' E 121°47'0 0.0
2014-Oct-16 22:31N 30°01' E 121°47'0 0.0
2014-Oct-16 21:31N 30°01' E 121°47'0 0.0
2014-Oct-16 20:25N 30°01' E 121°47'0 0.0
2014-Oct-16 19:25N 30°01' E 121°47'0 0.0
2014-Oct-16 18:31N 30°01' E 121°47'0 0.0
2014-Oct-16 17:19N 30°01' E 121°47'0 0.1
2014-Oct-16 16:31N 30°01' E 121°47'0 0.0
2014-Oct-16 14:07N 30°01' E 121°47'0 0.0
2014-Oct-16 11:16N 30°01' E 121°47'0 0.0
2014-Oct-16 10:25N 30°01' E 121°47'0 0.0
2014-Oct-16 07:25N 30°01' E 121°47'0 0.0
2014-Oct-16 05:16N 30°01' E 121°47'3 3.1
2014-Oct-16 04:21N 30°04' E 121°48'8 7.7
2014-Oct-16 03:17N 30°12' E 121°48'1 0.1
2014-Oct-15 13:05N 30°13' E 121°49'19 7.1
2014-Oct-15 10:22N 30°29' E 122°01'6 7.4
2014-Oct-15 09:32N 30°32' E 122°07'8 7.5
2014-Oct-15 08:29N 30°38' E 122°13'7 8.0
2014-Oct-15 07:34N 30°45' E 122°16'8 8.1
2014-Oct-15 06:34N 30°52' E 122°21'21 9.6
2014-Oct-15 04:20N 30°58' E 122°45'  
Track history (hours):
 
Tides and Currents Weather Stations Pressure Air Temp Water Temp Dewpoint Dewpoint Depression Visibility Wind Speed Wind Dir Waves Ship Positions

Sheng Jia 1

Last reported at 2014-Oct-22 23:16 UTC. Time now 2014-Oct-24 12:10 UTC.
Position N 30°41' E 122°51'.

Length 73 m; draft 3.5 m.

Type: Cargo ship. MMSI: 515744000.

Date/timePositionNaut miles runAvg speedWind from/ knotsBaromVisibWave heightAir tempDewpointWater temp
2014-Oct-22 23:16N 30°41' E 122°51'2 2.7
2014-Oct-22 22:33N 30°41' E 122°48'0 0.0
2014-Oct-22 21:32N 30°41' E 122°48'0 0.1
2014-Oct-22 20:33N 30°41' E 122°49'0 0.0
2014-Oct-22 19:33N 30°41' E 122°49'0 0.1
2014-Oct-22 18:33N 30°41' E 122°49'0 0.0
2014-Oct-22 17:33N 30°41' E 122°49'0 0.1
2014-Oct-22 16:32N 30°41' E 122°49'0 0.1
2014-Oct-22 15:32N 30°41' E 122°49'0 0.1
2014-Oct-22 14:33N 30°41' E 122°49'0 0.0
2014-Oct-22 13:29N 30°41' E 122°49'0 0.0
2014-Oct-22 12:33N 30°41' E 122°49'2 0.5
2014-Oct-22 08:33N 30°41' E 122°51'2 2.1
2014-Oct-22 07:33N 30°41' E 122°48'0 0.1
2014-Oct-22 06:33N 30°41' E 122°48'0 0.0
2014-Oct-22 05:33N 30°41' E 122°48'0 0.0
2014-Oct-22 04:33N 30°41' E 122°48'0 0.0
2014-Oct-22 03:33N 30°41' E 122°48'0 0.0
2014-Oct-22 02:32N 30°41' E 122°48'0 0.1
2014-Oct-22 01:33N 30°41' E 122°48'0 0.1
2014-Oct-22 00:33N 30°41' E 122°48'0 0.0
2014-Oct-21 23:32N 30°41' E 122°48'0 0.0
2014-Oct-21 22:32N 30°41' E 122°48'0 0.0
2014-Oct-21 21:33N 30°41' E 122°48'0 0.0
2014-Oct-21 20:33N 30°41' E 122°48'0 0.0
2014-Oct-21 19:34N 30°41' E 122°48'0 0.0
2014-Oct-21 18:31N 30°41' E 122°48'0 0.1
2014-Oct-21 17:32N 30°41' E 122°48'0 0.0
2014-Oct-21 16:33N 30°41' E 122°48'0 0.0
2014-Oct-21 15:33N 30°41' E 122°48'5 5.3
2014-Oct-21 14:32N 30°46' E 122°51'9 8.7
2014-Oct-21 13:31N 30°54' E 122°48'13 2.5
2014-Oct-21 08:26N 30°58' E 122°33'12 9.6
2014-Oct-21 07:12N 31°01' E 122°20'35 9.4
2014-Oct-21 03:29N 31°17' E 121°44'7 7.0
2014-Oct-21 02:33N 31°22' E 121°38'6 6.4
2014-Oct-21 01:33N 31°23' E 121°31'5 4.8
2014-Oct-21 00:33N 31°19' E 121°34'6 6.0
2014-Oct-20 23:34N 31°15' E 121°29'7 6.0
2014-Oct-20 22:24N 31°08' E 121°28'2 0.1
2014-Oct-20 05:32N 31°10' E 121°28'6 5.9
2014-Oct-20 04:33N 31°15' E 121°31'6 5.7
2014-Oct-20 03:33N 31°21' E 121°32'3 3.2
2014-Oct-20 02:33N 31°23' E 121°34'1010.0
2014-Oct-20 01:33N 31°18' E 121°44'38 6.0
2014-Oct-19 19:15N 30°57' E 122°21'6 8.2
2014-Oct-19 18:33N 30°52' E 122°20'8 8.3
2014-Oct-19 17:32N 30°44' E 122°17'9 8.6
2014-Oct-19 16:32N 30°35' E 122°14'1510.4
2014-Oct-19 15:09N 30°27' E 122°01'15 9.0
2014-Oct-19 13:30N 30°16' E 121°48'1210.6
2014-Oct-19 12:24N 30°05' E 121°48'7 8.0
2014-Oct-19 11:33N 29°59' E 121°45'1 0.0
2014-Oct-18 12:24N 29°59' E 121°46'3 1.2
2014-Oct-18 10:20N 30°01' E 121°47'0 0.0
2014-Oct-18 09:32N 30°01' E 121°47'0 0.0
2014-Oct-18 08:26N 30°01' E 121°47'0 0.1
2014-Oct-18 07:08N 30°01' E 121°47'0 0.1
2014-Oct-18 06:14N 30°01' E 121°47'0 0.0
2014-Oct-18 05:26N 30°01' E 121°47'0 0.0
2014-Oct-18 04:32N 30°01' E 121°47'0 0.1
2014-Oct-18 03:32N 30°01' E 121°47'0 0.0
2014-Oct-18 02:20N 30°01' E 121°47'0 0.1
2014-Oct-18 01:33N 30°01' E 121°47'0 0.0
2014-Oct-18 00:19N 30°01' E 121°47'0 0.0
2014-Oct-17 19:13N 30°01' E 121°47'0 0.0
2014-Oct-17 18:19N 30°01' E 121°47'0 0.1
2014-Oct-17 17:13N 30°01' E 121°47'0 0.0
2014-Oct-17 16:31N 30°01' E 121°47'0 0.0
2014-Oct-17 14:25N 30°01' E 121°47'0 0.1
2014-Oct-17 13:21N 30°01' E 121°47'0 0.1
2014-Oct-17 12:17N 30°01' E 121°47'0 0.0
2014-Oct-17 08:33N 30°01' E 121°47'0 0.0
2014-Oct-17 05:08N 30°01' E 121°47'0 0.0
2014-Oct-17 03:19N 30°01' E 121°47'0 0.0
2014-Oct-17 02:10N 30°01' E 121°47'0 0.0
2014-Oct-17 00:21N 30°01' E 121°47'0 0.1
2014-Oct-16 23:25N 30°01' E 121°47'0 0.0
2014-Oct-16 22:31N 30°01' E 121°47'0 0.0
2014-Oct-16 21:31N 30°01' E 121°47'0 0.0
2014-Oct-16 20:25N 30°01' E 121°47'0 0.0
2014-Oct-16 19:25N 30°01' E 121°47'0 0.0
2014-Oct-16 18:31N 30°01' E 121°47'0 0.0
2014-Oct-16 17:19N 30°01' E 121°47'0 0.1
2014-Oct-16 16:31N 30°01' E 121°47'0 0.0
2014-Oct-16 14:07N 30°01' E 121°47'0 0.0
2014-Oct-16 11:16N 30°01' E 121°47'0 0.0
2014-Oct-16 10:25N 30°01' E 121°47'0 0.0
2014-Oct-16 07:25N 30°01' E 121°47'0 0.0
2014-Oct-16 05:16N 30°01' E 121°47'3 3.1
2014-Oct-16 04:21N 30°04' E 121°48'8 7.7
2014-Oct-16 03:17N 30°12' E 121°48'1 0.1
2014-Oct-15 13:05N 30°13' E 121°49'19 7.1
2014-Oct-15 10:22N 30°29' E 122°01'6 7.4
2014-Oct-15 09:32N 30°32' E 122°07'8 7.5
2014-Oct-15 08:29N 30°38' E 122°13'7 8.0
2014-Oct-15 07:34N 30°45' E 122°16'8 8.1
2014-Oct-15 06:34N 30°52' E 122°21'21 9.6
2014-Oct-15 04:20N 30°58' E 122°45'  

Dump ship's entire track history